Time;durP1;ratioP1;P1;durP2;ratioP2;P2;SDS_P1;SDS_P2;PMS_P1;PMS_P2;Temp;Humidity;BMP_temperature;BMP_pressure;BME280_temperature;BME280_humidity;BME280_pressure;Samples;Min_cycle;Max_cycle;Signal;HPM_P1;HPM_P2
2022/01/02 00:01:59;;;;;;;13.82;4.25;;;12.30;99.90;;;;;;5028600;28;20076;-57
2022/01/02 00:04:28;;;;;;;12.80;4.88;;;12.30;99.90;;;;;;5029659;28;20034;-54
2022/01/02 00:06:54;;;;;;;7.70;3.30;;;12.30;99.90;;;;;;5025066;28;20045;-57
2022/01/02 00:09:32;;;;;;;9.05;3.47;;;12.30;99.90;;;;;;5029377;28;20021;-57
2022/01/02 00:12:07;;;;;;;8.68;3.90;;;12.30;99.90;;;;;;5028383;28;20034;-57
2022/01/02 00:14:36;;;;;;;9.93;4.35;;;12.20;99.90;;;;;;5018774;28;20046;-57
2022/01/02 00:17:04;;;;;;;9.52;3.30;;;12.20;99.90;;;;;;5028055;28;20211;-57
2022/01/02 00:19:31;;;;;;;10.88;4.57;;;12.20;99.90;;;;;;5030101;28;20067;-56
2022/01/02 00:22:00;;;;;;;10.07;3.95;;;12.20;99.90;;;;;;5010523;28;20029;-56
2022/01/02 00:24:28;;;;;;;9.80;3.70;;;12.20;99.90;;;;;;5029452;28;20037;-57
2022/01/02 00:26:56;;;;;;;9.38;3.65;;;12.20;99.90;;;;;;5010835;28;20029;-58
2022/01/02 00:29:23;;;;;;;10.25;3.97;;;12.10;99.90;;;;;;5026476;28;20280;-55
2022/01/02 00:31:50;;;;;;;7.82;3.65;;;12.10;99.90;;;;;;5022685;28;20080;-54
2022/01/02 00:34:18;;;;;;;8.45;3.63;;;12.10;99.90;;;;;;5024786;28;20076;-55
2022/01/02 00:36:43;;;;;;;8.82;3.72;;;12.10;99.90;;;;;;5029624;28;20017;-57
2022/01/02 00:39:09;;;;;;;13.00;3.70;;;12.20;99.90;;;;;;5028457;28;20040;-57
2022/01/02 00:41:53;;;;;;;9.07;3.50;;;12.10;99.90;;;;;;5027517;28;20626;-55
2022/01/02 00:44:48;;;;;;;13.60;3.70;;;12.20;99.90;;;;;;5029370;28;20116;-55
2022/01/02 00:47:43;;;;;;;11.82;3.63;;;12.20;99.90;;;;;;5019194;28;20036;-58
2022/01/02 00:50:29;;;;;;;9.48;3.58;;;12.20;99.90;;;;;;5028371;28;20040;-55
2022/01/02 00:52:58;;;;;;;10.50;3.90;;;12.10;99.90;;;;;;5022999;28;20028;-56
2022/01/02 00:55:25;;;;;;;7.82;3.72;;;12.00;99.90;;;;;;5027785;28;20498;-56
2022/01/02 00:58:05;;;;;;;8.48;3.58;;;12.00;99.90;;;;;;5029074;28;20083;-52
2022/01/02 01:00:32;;;;;;;9.68;4.30;;;11.90;99.90;;;;;;5028534;28;20511;-54
2022/01/02 01:03:00;;;;;;;13.02;4.20;;;11.80;99.90;;;;;;5028974;28;20061;-55
2022/01/02 01:05:35;;;;;;;14.15;4.20;;;11.80;99.90;;;;;;5015276;28;20068;-55
2022/01/02 01:08:06;;;;;;;9.23;3.85;;;11.80;99.90;;;;;;5028253;28;20549;-56
2022/01/02 01:10:40;;;;;;;8.93;4.00;;;11.80;99.90;;;;;;5027412;28;20392;-55
2022/01/02 01:13:08;;;;;;;8.90;4.25;;;11.70;99.90;;;;;;5025426;28;20049;-56
2022/01/02 01:15:35;;;;;;;9.25;4.45;;;11.70;99.90;;;;;;5028808;28;20515;-55
2022/01/02 01:18:02;;;;;;;8.13;4.25;;;11.70;99.90;;;;;;5028161;28;20038;-56
2022/01/02 01:20:36;;;;;;;9.80;4.13;;;11.70;99.90;;;;;;5028159;28;20095;-54
2022/01/02 01:23:02;;;;;;;11.48;4.75;;;11.70;99.90;;;;;;5011681;28;20103;-54
2022/01/02 01:25:28;;;;;;;12.27;4.78;;;11.70;99.90;;;;;;5028829;28;20030;-53
2022/01/02 01:27:54;;;;;;;10.43;4.25;;;11.60;99.90;;;;;;5010350;28;20831;-54
2022/01/02 01:30:24;;;;;;;16.02;5.00;;;11.70;99.90;;;;;;5027807;28;20116;-55
2022/01/02 01:32:52;;;;;;;13.52;5.00;;;11.70;99.90;;;;;;5027498;28;20026;-54
2022/01/02 01:35:18;;;;;;;11.40;4.72;;;11.60;99.90;;;;;;5028797;28;20048;-51
2022/01/02 01:37:44;;;;;;;9.60;4.20;;;11.60;99.90;;;;;;5028026;28;20030;-54
2022/01/02 01:40:11;;;;;;;10.35;4.82;;;11.50;99.90;;;;;;5011481;28;20033;-53
2022/01/02 01:42:42;;;;;;;8.38;4.97;;;11.50;99.90;;;;;;5028350;28;20040;-56
2022/01/02 01:47:56;;;;;;;12.48;5.13;;;11.60;99.90;;;;;;5026016;28;20044;-55
2022/01/02 01:50:28;;;;;;;14.40;5.00;;;11.60;99.90;;;;;;5031721;28;20072;-53
2022/01/02 01:52:55;;;;;;;11.63;4.70;;;11.60;99.90;;;;;;5031071;28;20068;-52
2022/01/02 01:55:21;;;;;;;16.02;5.32;;;11.50;99.90;;;;;;5031837;28;20430;-51
2022/01/02 01:57:47;;;;;;;11.70;4.85;;;11.50;99.90;;;;;;5014587;28;20061;-52
2022/01/02 02:00:18;;;;;;;13.70;5.03;;;11.50;99.90;;;;;;5031253;28;20033;-51
2022/01/02 02:02:45;;;;;;;14.00;4.93;;;11.40;99.90;;;;;;5031829;28;20067;-55
2022/01/02 02:05:11;;;;;;;8.40;5.00;;;11.50;99.90;;;;;;5030633;28;20029;-53
2022/01/02 02:07:40;;;;;;;11.38;4.72;;;11.40;99.90;;;;;;5024336;28;20085;-54
2022/01/02 02:10:15;;;;;;;13.07;5.63;;;11.30;99.90;;;;;;5031120;28;20033;-52
2022/01/02 02:12:44;;;;;;;11.38;5.25;;;11.20;99.90;;;;;;5024349;28;20266;-51
2022/01/02 02:15:11;;;;;;;14.60;6.13;;;11.10;99.90;;;;;;5031273;28;20021;-50
2022/01/02 02:17:37;;;;;;;13.23;5.88;;;11.00;99.90;;;;;;5031585;28;20245;-53
2022/01/02 02:20:30;;;;;;;14.90;5.50;;;11.00;99.90;;;;;;5030275;28;20223;-50
2022/01/02 02:22:58;;;;;;;14.18;6.13;;;10.90;99.90;;;;;;5005931;28;20033;-51
2022/01/02 02:25:27;;;;;;;11.13;5.50;;;10.90;99.90;;;;;;5031781;28;20514;-53
2022/01/02 02:28:02;;;;;;;15.20;6.38;;;10.90;99.90;;;;;;5028859;28;20060;-59
2022/01/02 02:30:30;;;;;;;13.57;6.40;;;10.90;99.90;;;;;;5031892;28;20538;-58
2022/01/02 02:32:58;;;;;;;14.90;6.43;;;10.90;99.90;;;;;;5029445;28;20082;-56
2022/01/02 02:35:25;;;;;;;11.45;5.90;;;10.90;99.90;;;;;;5031430;28;20029;-58
2022/01/02 02:37:51;;;;;;;12.65;6.13;;;10.80;99.90;;;;;;5031619;28;20104;-58
2022/01/02 02:40:19;;;;;;;9.63;5.90;;;10.80;99.90;;;;;;5031996;28;20109;-56
2022/01/02 02:51:10;;;;;;;10.95;5.45;;;10.80;99.90;;;;;;5011346;28;20084;-58
2022/01/02 02:53:43;;;;;;;11.73;6.13;;;10.70;99.90;;;;;;5029655;28;20090;-58
2022/01/02 02:56:40;;;;;;;9.05;5.65;;;10.80;99.90;;;;;;5030732;28;20112;-58
2022/01/02 02:58:59;;;;;;;12.07;6.22;;;10.70;99.90;;;;;;5026340;28;20113;-58
2022/01/02 03:01:27;;;;;;;13.00;5.80;;;10.70;99.90;;;;;;5030093;28;20124;-58
2022/01/02 03:03:53;;;;;;;12.40;5.93;;;10.70;99.90;;;;;;5030947;28;20033;-58
2022/01/02 03:06:19;;;;;;;11.82;6.50;;;10.70;99.90;;;;;;5004868;28;20054;-58
2022/01/02 03:08:47;;;;;;;13.75;6.57;;;10.80;99.90;;;;;;5031145;28;20043;-59
2022/01/02 03:11:16;;;;;;;14.15;6.78;;;10.70;99.90;;;;;;5029664;28;20036;-58
2022/01/02 03:13:43;;;;;;;11.13;6.60;;;10.70;99.90;;;;;;5030569;28;20487;-58
2022/01/02 03:16:09;;;;;;;11.18;6.93;;;10.80;99.90;;;;;;5022506;28;20076;-57
2022/01/02 03:18:35;;;;;;;15.60;7.00;;;10.80;99.90;;;;;;5013374;28;20035;-58
2022/01/02 03:21:00;;;;;;;15.02;6.45;;;10.70;99.90;;;;;;5029105;28;20038;-58
2022/01/02 03:23:26;;;;;;;11.60;6.40;;;10.80;99.90;;;;;;5030666;28;20040;-58
2022/01/02 03:25:52;;;;;;;13.43;7.55;;;10.80;99.90;;;;;;5024005;28;20029;-58
2022/01/02 03:28:18;;;;;;;12.57;6.82;;;10.80;99.90;;;;;;5029733;28;20030;-58
2022/01/02 03:30:43;;;;;;;15.35;7.18;;;10.80;99.90;;;;;;5030318;28;20042;-58
2022/01/02 03:33:09;;;;;;;10.38;6.60;;;10.80;99.90;;;;;;5012300;28;20082;-58
2022/01/02 03:35:35;;;;;;;13.80;7.20;;;10.80;99.90;;;;;;5029527;28;20025;-58
2022/01/02 03:38:02;;;;;;;13.32;7.30;;;10.80;99.90;;;;;;5030768;28;20068;-57
2022/01/02 03:40:28;;;;;;;14.07;7.72;;;10.70;99.90;;;;;;5029605;28;20041;-56
2022/01/02 03:42:54;;;;;;;11.80;7.68;;;10.70;99.90;;;;;;5029408;28;20025;-53
2022/01/02 03:45:20;;;;;;;14.80;8.00;;;10.70;99.90;;;;;;5030388;28;20067;-53
2022/01/02 03:47:46;;;;;;;16.73;8.07;;;10.70;99.90;;;;;;5029663;28;20168;-54
2022/01/02 03:50:12;;;;;;;17.15;9.05;;;10.70;99.90;;;;;;5028629;28;20033;-58
2022/01/02 03:52:38;;;;;;;14.93;8.07;;;10.80;99.90;;;;;;5029010;28;20053;-56
2022/01/02 03:55:04;;;;;;;15.02;8.82;;;10.70;99.90;;;;;;5029856;28;20088;-55
2022/01/02 03:57:30;;;;;;;15.55;8.80;;;10.70;99.90;;;;;;5029054;28;20018;-56
2022/01/02 03:59:56;;;;;;;15.77;9.73;;;10.70;99.90;;;;;;5011605;28;20040;-56
2022/01/02 04:02:21;;;;;;;14.05;7.93;;;10.70;99.90;;;;;;5028730;28;20029;-54
2022/01/02 04:04:47;;;;;;;24.73;13.15;;;10.70;99.90;;;;;;5029315;28;20101;-54
2022/01/02 04:07:13;;;;;;;19.33;8.80;;;10.70;99.90;;;;;;5029828;28;20025;-54
2022/01/02 04:09:38;;;;;;;16.38;8.82;;;10.70;99.90;;;;;;5009771;28;20083;-53
2022/01/02 04:12:04;;;;;;;19.13;8.73;;;10.70;99.90;;;;;;5022000;28;20033;-55
2022/01/02 04:14:30;;;;;;;20.45;9.32;;;10.70;99.90;;;;;;5028731;28;20036;-55
2022/01/02 04:16:55;;;;;;;15.02;8.95;;;10.70;99.90;;;;;;5028720;28;20033;-56
2022/01/02 04:19:21;;;;;;;16.27;9.35;;;10.70;99.90;;;;;;5026855;28;20053;-54
2022/01/02 04:21:46;;;;;;;20.00;10.05;;;10.70;99.90;;;;;;5029216;28;20033;-56
2022/01/02 04:24:12;;;;;;;14.27;8.75;;;10.70;99.90;;;;;;5028080;28;20522;-53
2022/01/02 04:26:38;;;;;;;18.70;9.40;;;10.60;99.90;;;;;;5029003;28;20029;-53
2022/01/02 04:29:04;;;;;;;16.83;8.80;;;10.70;99.90;;;;;;5029334;28;20403;-56
2022/01/02 04:31:30;;;;;;;21.98;10.15;;;10.70;99.90;;;;;;5028917;28;20061;-56
2022/01/02 04:33:55;;;;;;;17.60;8.88;;;10.70;99.90;;;;;;5029020;28;20451;-56
2022/01/02 04:36:21;;;;;;;17.73;10.32;;;10.60;99.90;;;;;;5028573;28;20113;-56
2022/01/02 04:38:46;;;;;;;15.85;9.88;;;10.70;99.90;;;;;;5029280;28;20108;-55
2022/01/02 04:41:12;;;;;;;19.38;9.90;;;10.70;99.90;;;;;;5028331;28;20029;-53
2022/01/02 04:43:38;;;;;;;19.92;9.90;;;10.70;99.90;;;;;;5028562;28;20057;-55
2022/01/02 04:46:04;;;;;;;20.27;9.93;;;10.70;99.90;;;;;;5029063;28;20034;-54
2022/01/02 04:48:30;;;;;;;17.80;9.52;;;10.70;99.90;;;;;;5028757;28;20048;-55
2022/01/02 04:50:55;;;;;;;17.02;9.90;;;10.70;99.90;;;;;;5024022;28;20120;-55
2022/01/02 04:53:22;;;;;;;16.52;10.05;;;10.70;99.90;;;;;;5028629;28;20108;-54
2022/01/02 04:55:48;;;;;;;20.92;10.02;;;10.70;99.90;;;;;;5028337;28;20116;-56
2022/01/02 04:58:13;;;;;;;19.55;10.52;;;10.70;99.90;;;;;;5028284;28;20108;-56
2022/01/02 05:00:39;;;;;;;17.55;9.82;;;10.70;99.90;;;;;;5028582;28;20494;-55
2022/01/02 05:03:05;;;;;;;16.40;10.20;;;10.60;99.90;;;;;;5028526;28;20451;-56
2022/01/02 05:05:30;;;;;;;17.48;10.90;;;10.60;99.90;;;;;;5010810;28;20033;-53
2022/01/02 05:07:56;;;;;;;20.27;11.10;;;10.60;99.90;;;;;;5028462;28;20654;-56
2022/01/02 05:10:22;;;;;;;20.42;11.15;;;10.70;99.90;;;;;;5029004;28;20451;-56
2022/01/02 05:12:48;;;;;;;18.85;10.95;;;10.60;99.90;;;;;;5028099;28;20061;-54
2022/01/02 05:15:13;;;;;;;23.92;11.13;;;10.60;99.90;;;;;;5028976;28;20017;-57
2022/01/02 05:17:39;;;;;;;19.75;11.25;;;10.60;99.90;;;;;;5029454;28;20034;-58
2022/01/02 05:20:05;;;;;;;22.00;11.73;;;10.60;99.90;;;;;;5025004;28;20033;-58
2022/01/02 05:22:31;;;;;;;21.80;11.00;;;10.60;99.90;;;;;;5014124;28;20886;-58
2022/01/02 05:24:56;;;;;;;19.73;11.82;;;10.60;99.90;;;;;;5031989;28;20029;-58
2022/01/02 05:27:22;;;;;;;18.52;11.73;;;10.60;99.90;;;;;;5032201;28;20099;-55
2022/01/02 05:29:48;;;;;;;20.60;12.48;;;10.60;99.90;;;;;;5032834;28;20121;-58
2022/01/02 05:32:13;;;;;;;25.35;13.80;;;10.60;99.90;;;;;;5028324;28;20049;-58
2022/01/02 05:34:39;;;;;;;24.17;12.38;;;10.60;99.90;;;;;;5032941;28;20109;-57
2022/01/02 05:37:05;;;;;;;27.35;12.77;;;10.60;99.90;;;;;;5031256;28;20430;-57
2022/01/02 05:39:31;;;;;;;21.70;12.82;;;10.60;99.90;;;;;;5033018;28;20026;-57
2022/01/02 05:41:56;;;;;;;25.02;12.95;;;10.60;99.90;;;;;;5031564;28;20025;-58
2022/01/02 05:44:22;;;;;;;24.23;10.80;;;10.60;99.90;;;;;;5032571;28;20021;-57
2022/01/02 05:46:48;;;;;;;23.92;13.23;;;10.60;99.90;;;;;;5032504;28;20093;-56
2022/01/02 05:49:14;;;;;;;21.70;12.10;;;10.60;99.90;;;;;;5030699;28;20436;-57
2022/01/02 05:51:40;;;;;;;21.27;11.40;;;10.70;99.90;;;;;;5031382;28;20304;-57
2022/01/02 05:54:06;;;;;;;28.08;12.35;;;10.70;99.90;;;;;;5031985;28;20032;-58
2022/01/02 05:56:32;;;;;;;19.77;11.40;;;10.70;99.90;;;;;;5031803;28;20057;-57
2022/01/02 05:58:58;;;;;;;23.73;12.07;;;10.60;99.90;;;;;;5032317;28;20506;-58
2022/01/02 06:01:24;;;;;;;22.88;11.80;;;10.70;99.90;;;;;;5031464;28;20104;-60
2022/01/02 06:03:50;;;;;;;18.63;10.77;;;10.70;99.90;;;;;;5031156;28;20072;-57
2022/01/02 06:06:15;;;;;;;20.55;11.18;;;10.70;99.90;;;;;;5031356;28;20077;-55
2022/01/02 06:08:41;;;;;;;22.15;11.00;;;10.70;99.90;;;;;;5032182;28;20046;-57
2022/01/02 06:11:07;;;;;;;20.17;9.18;;;10.70;99.90;;;;;;5023865;28;20081;-58
2022/01/02 06:13:32;;;;;;;18.55;9.25;;;10.70;99.90;;;;;;5031290;28;20026;-58
2022/01/02 06:15:58;;;;;;;17.48;9.38;;;10.70;99.90;;;;;;5012952;28;20026;-58
2022/01/02 06:18:24;;;;;;;23.25;10.35;;;10.70;99.90;;;;;;5031912;28;20025;-58
2022/01/02 06:20:49;;;;;;;21.98;10.02;;;10.70;99.90;;;;;;5023459;28;20083;-57
2022/01/02 06:23:16;;;;;;;23.00;10.07;;;10.70;99.90;;;;;;5029677;28;20479;-58
2022/01/02 06:25:45;;;;;;;21.42;9.60;;;10.70;99.90;;;;;;5032241;28;20029;-56
2022/01/02 06:28:12;;;;;;;19.27;10.70;;;10.70;99.90;;;;;;5030959;28;20376;-57
2022/01/02 06:30:37;;;;;;;20.00;9.77;;;10.70;99.90;;;;;;5031769;28;20029;-58
2022/01/02 06:33:03;;;;;;;18.83;10.10;;;10.70;99.90;;;;;;5028181;28;20030;-57
2022/01/02 06:35:32;;;;;;;25.33;10.75;;;10.70;99.90;;;;;;5031457;28;20039;-57
2022/01/02 06:37:58;;;;;;;19.55;10.05;;;10.70;99.90;;;;;;5031835;28;20026;-57
2022/01/02 06:40:24;;;;;;;21.80;9.75;;;10.70;99.90;;;;;;5031643;28;20395;-57
2022/01/02 06:42:50;;;;;;;18.27;9.68;;;10.60;99.90;;;;;;5030723;28;20305;-57
2022/01/02 06:45:15;;;;;;;26.00;11.05;;;10.60;99.90;;;;;;5028723;28;20078;-56
2022/01/02 06:47:42;;;;;;;20.67;10.88;;;10.60;99.90;;;;;;5010131;28;20056;-56
2022/01/02 06:50:09;;;;;;;24.67;11.15;;;10.60;99.90;;;;;;5030840;28;20028;-56
2022/01/02 06:52:34;;;;;;;20.95;11.15;;;10.60;99.90;;;;;;5030556;28;20068;-57
2022/01/02 06:55:00;;;;;;;26.67;11.13;;;10.60;99.90;;;;;;5031139;28;20419;-57
2022/01/02 06:57:26;;;;;;;24.63;11.77;;;10.60;99.90;;;;;;5030689;28;20546;-57
2022/01/02 06:59:51;;;;;;;29.60;11.70;;;10.60;99.90;;;;;;5030967;28;20029;-57
2022/01/02 07:02:17;;;;;;;23.70;11.15;;;10.60;99.90;;;;;;5012035;28;20029;-57
2022/01/02 07:04:43;;;;;;;24.05;11.07;;;10.60;99.90;;;;;;5013372;28;20026;-56
2022/01/02 07:07:09;;;;;;;22.10;11.32;;;10.60;99.90;;;;;;5030274;28;20456;-57
2022/01/02 07:09:35;;;;;;;22.92;11.02;;;10.60;99.90;;;;;;5030933;28;20029;-57
2022/01/02 07:12:01;;;;;;;24.63;11.50;;;10.60;99.90;;;;;;5028873;28;20029;-56
2022/01/02 07:14:27;;;;;;;23.00;11.65;;;10.60;99.90;;;;;;5031173;28;20107;-57
2022/01/02 07:16:59;;;;;;;27.58;12.05;;;10.60;99.90;;;;;;5012681;28;20511;-57
2022/01/02 07:19:25;;;;;;;22.63;11.48;;;10.60;99.90;;;;;;5029787;28;20033;-57
2022/01/02 07:21:52;;;;;;;23.42;10.93;;;10.60;99.90;;;;;;5030500;28;20030;-57
2022/01/02 07:24:18;;;;;;;22.48;11.20;;;10.60;99.90;;;;;;5030227;28;20384;-57
2022/01/02 07:26:44;;;;;;;22.00;11.27;;;10.70;99.90;;;;;;5023253;28;20107;-58
2022/01/02 07:29:10;;;;;;;23.88;10.82;;;10.70;99.90;;;;;;5030649;28;20179;-58
2022/01/02 07:31:37;;;;;;;21.88;10.82;;;10.70;99.90;;;;;;5026327;28;20036;-57
2022/01/02 07:34:04;;;;;;;22.85;11.18;;;10.70;99.90;;;;;;5030614;28;20040;-56
2022/01/02 07:36:30;;;;;;;22.27;11.38;;;10.70;99.90;;;;;;5030014;28;20048;-57
2022/01/02 07:38:56;;;;;;;21.52;10.73;;;10.70;99.90;;;;;;5029770;28;20033;-56
2022/01/02 07:41:23;;;;;;;23.27;10.65;;;10.70;99.90;;;;;;5024270;28;20030;-56
2022/01/02 07:43:49;;;;;;;24.08;9.68;;;10.70;99.90;;;;;;5029269;28;20033;-57
2022/01/02 07:46:15;;;;;;;22.30;11.02;;;10.80;99.90;;;;;;5030029;28;20026;-56
2022/01/02 07:48:41;;;;;;;22.67;10.77;;;10.90;99.90;;;;;;5029652;28;20037;-57
2022/01/02 07:51:06;;;;;;;24.40;11.15;;;10.90;99.90;;;;;;5030044;28;20445;-57
2022/01/02 07:53:32;;;;;;;25.55;10.50;;;10.80;99.90;;;;;;5028381;28;20487;-57
2022/01/02 07:55:58;;;;;;;16.55;9.52;;;10.90;99.90;;;;;;5029617;28;20037;-59
2022/01/02 07:58:24;;;;;;;26.75;10.20;;;10.90;99.90;;;;;;5029581;28;20036;-56
2022/01/02 08:00:50;;;;;;;25.02;9.88;;;10.90;99.90;;;;;;5023239;28;20446;-54
2022/01/02 08:03:17;;;;;;;26.88;10.75;;;10.90;99.90;;;;;;5028835;28;20116;-56
2022/01/02 08:05:43;;;;;;;25.95;9.52;;;10.90;99.90;;;;;;5012479;28;20033;-57
2022/01/02 08:08:09;;;;;;;25.27;10.40;;;11.00;99.90;;;;;;5028897;28;20034;-57
2022/01/02 08:10:37;;;;;;;26.85;10.15;;;10.90;99.90;;;;;;5028622;28;20030;-57
2022/01/02 08:13:02;;;;;;;22.23;9.30;;;10.90;99.90;;;;;;5027029;28;20091;-56
2022/01/02 08:15:28;;;;;;;28.20;9.88;;;11.00;99.90;;;;;;5028478;28;20077;-57
2022/01/02 08:17:54;;;;;;;19.15;9.20;;;11.00;99.90;;;;;;5028556;28;20029;-56
2022/01/02 08:20:19;;;;;;;17.05;8.18;;;11.00;99.90;;;;;;5029522;28;20065;-57
2022/01/02 08:22:45;;;;;;;17.10;8.07;;;11.00;99.90;;;;;;5027302;28;20021;-57
2022/01/02 08:25:10;;;;;;;21.27;8.68;;;11.10;99.90;;;;;;5028413;28;20037;-57
2022/01/02 08:27:36;;;;;;;16.55;8.23;;;11.10;99.90;;;;;;5028125;28;20047;-57
2022/01/02 08:30:03;;;;;;;20.05;8.70;;;11.20;99.90;;;;;;5028920;28;20033;-57
2022/01/02 08:32:28;;;;;;;18.00;8.02;;;11.20;99.90;;;;;;5028769;28;20025;-57
2022/01/02 08:34:54;;;;;;;21.02;7.43;;;11.20;99.90;;;;;;5029180;28;20029;-57
2022/01/02 08:37:20;;;;;;;15.00;7.28;;;11.20;99.90;;;;;;5028718;28;20083;-54
2022/01/02 08:39:45;;;;;;;18.30;6.45;;;11.20;99.90;;;;;;5029382;28;20546;-56
2022/01/02 08:42:12;;;;;;;13.27;6.32;;;11.20;99.90;;;;;;5024947;28;20092;-56
2022/01/02 08:44:39;;;;;;;19.02;7.13;;;11.30;99.90;;;;;;5029438;28;20049;-57
2022/01/02 08:47:06;;;;;;;19.10;7.55;;;11.30;99.90;;;;;;5028549;28;20436;-57
2022/01/02 08:49:32;;;;;;;15.48;6.45;;;11.30;99.90;;;;;;5029505;28;20052;-57
2022/01/02 08:51:58;;;;;;;17.20;6.07;;;11.30;99.90;;;;;;5028066;28;20112;-56
2022/01/02 08:54:24;;;;;;;13.75;6.05;;;11.30;99.90;;;;;;5028965;28;20117;-57
2022/01/02 08:56:49;;;;;;;16.67;6.10;;;11.30;99.90;;;;;;5019985;28;20030;-56
2022/01/02 08:59:17;;;;;;;13.35;5.82;;;11.40;99.90;;;;;;5010388;28;20072;-56
2022/01/02 09:01:43;;;;;;;15.25;5.45;;;11.40;99.90;;;;;;5028689;28;20029;-55
2022/01/02 09:04:09;;;;;;;13.75;5.18;;;11.40;99.90;;;;;;5044758;28;20585;-56
2022/01/02 09:06:34;;;;;;;11.73;5.22;;;11.40;99.90;;;;;;5049811;28;20069;-55
2022/01/02 09:09:00;;;;;;;19.40;5.82;;;11.40;99.90;;;;;;5049345;28;20448;-57
2022/01/02 09:11:26;;;;;;;16.75;5.30;;;11.40;99.90;;;;;;5049191;28;20057;-57
2022/01/02 09:13:51;;;;;;;14.07;5.47;;;11.40;99.90;;;;;;5049053;28;20028;-55
2022/01/02 09:16:17;;;;;;;13.25;5.18;;;11.40;99.90;;;;;;5030683;28;20091;-55
2022/01/02 09:18:43;;;;;;;12.90;5.22;;;11.40;99.90;;;;;;5029449;28;20352;-54
2022/01/02 09:21:08;;;;;;;13.02;4.88;;;11.50;99.90;;;;;;5011698;28;20029;-55
2022/01/02 09:23:34;;;;;;;12.85;5.20;;;11.60;99.90;;;;;;4994959;28;20029;-53
2022/01/02 09:26:00;;;;;;;11.25;4.75;;;11.50;99.90;;;;;;5028941;28;20041;-53
2022/01/02 09:28:26;;;;;;;12.68;4.88;;;11.50;99.90;;;;;;5029298;28;20041;-55
2022/01/02 09:30:51;;;;;;;15.32;4.70;;;11.60;99.90;;;;;;5029271;28;20562;-55
2022/01/02 09:33:17;;;;;;;13.75;4.70;;;11.60;99.90;;;;;;5020579;28;20029;-56
2022/01/02 09:35:43;;;;;;;17.77;4.90;;;11.70;99.90;;;;;;5044340;28;20069;-55
2022/01/02 09:38:09;;;;;;;16.40;4.68;;;11.70;99.90;;;;;;5029028;28;20026;-56
2022/01/02 09:40:35;;;;;;;14.48;5.03;;;11.70;99.90;;;;;;5029244;28;20044;-56
2022/01/02 09:43:02;;;;;;;10.48;5.05;;;11.80;99.90;;;;;;5027985;28;20111;-56
2022/01/02 09:45:29;;;;;;;14.60;5.18;;;11.80;99.90;;;;;;5029228;28;20076;-58
2022/01/02 09:47:55;;;;;;;17.23;5.30;;;11.80;99.90;;;;;;5035626;28;20029;-55
2022/01/02 09:50:21;;;;;;;11.68;4.28;;;11.80;99.90;;;;;;5002203;28;20500;-56
2022/01/02 09:52:48;;;;;;;10.65;4.40;;;11.80;99.90;;;;;;5022800;28;20034;-55
2022/01/02 09:55:14;;;;;;;12.07;5.13;;;11.90;99.90;;;;;;5028159;28;20032;-54
2022/01/02 09:57:44;;;;;;;16.00;5.63;;;11.90;99.90;;;;;;5024974;28;20504;-54
2022/01/02 10:00:13;;;;;;;11.43;4.63;;;11.80;99.90;;;;;;5026579;28;20029;-57
2022/01/02 10:02:59;;;;;;;12.05;4.72;;;11.90;99.90;;;;;;5020219;28;20033;-56
2022/01/02 10:05:26;;;;;;;12.15;4.18;;;11.90;99.90;;;;;;5027976;28;20025;-53
2022/01/02 10:07:54;;;;;;;16.05;4.78;;;11.90;99.90;;;;;;5028233;28;20029;-54
2022/01/02 10:10:20;;;;;;;11.38;4.15;;;12.00;99.90;;;;;;5021971;28;20049;-62
2022/01/02 10:12:46;;;;;;;15.18;4.18;;;11.90;99.90;;;;;;5027003;28;20037;-57
2022/01/02 10:15:18;;;;;;;14.77;4.82;;;12.00;99.90;;;;;;5031005;28;20017;-57
2022/01/02 10:18:03;;;;;;;13.15;4.40;;;11.90;99.90;;;;;;5032038;28;20022;-54
2022/01/02 10:20:36;;;;;;;13.05;4.03;;;11.80;99.90;;;;;;5029468;28;20045;-57
2022/01/02 10:23:09;;;;;;;11.88;4.10;;;11.80;99.90;;;;;;5029734;28;20026;-57
2022/01/02 10:25:48;;;;;;;13.32;4.30;;;11.80;99.90;;;;;;5023242;28;20129;-56
2022/01/02 10:28:36;;;;;;;12.20;3.40;;;11.80;99.90;;;;;;5031374;28;20029;-57
2022/01/02 10:31:06;;;;;;;11.48;4.13;;;11.70;99.90;;;;;;5030187;28;20103;-57
2022/01/02 10:33:52;;;;;;;11.57;3.63;;;11.70;99.90;;;;;;5031069;28;20025;-57
2022/01/02 10:36:25;;;;;;;9.57;4.35;;;11.70;99.90;;;;;;5030578;28;20033;-56
2022/01/02 10:39:11;;;;;;;5.65;3.28;;;11.70;99.90;;;;;;5030677;28;20403;-57
2022/01/02 10:41:42;;;;;;;11.13;4.10;;;11.70;99.90;;;;;;5022335;28;20456;-56
2022/01/02 10:44:34;;;;;;;11.85;3.63;;;11.70;99.90;;;;;;5012855;28;20037;-53
2022/01/02 10:47:17;;;;;;;13.57;3.78;;;11.70;99.90;;;;;;5026010;28;20124;-53
2022/01/02 10:49:55;;;;;;;8.43;3.92;;;11.70;99.90;;;;;;5027240;28;20120;-58
2022/01/02 10:52:26;;;;;;;9.38;3.72;;;11.80;99.90;;;;;;5030908;28;20057;-58
2022/01/02 10:54:53;;;;;;;10.80;3.47;;;11.70;99.90;;;;;;5028657;28;20108;-57
2022/01/02 10:57:19;;;;;;;11.52;4.15;;;11.70;99.90;;;;;;5009795;28;20306;-58
2022/01/02 10:59:46;;;;;;;8.48;3.67;;;11.70;99.90;;;;;;5025104;28;20391;-58
2022/01/02 11:02:13;;;;;;;11.93;3.72;;;11.70;99.90;;;;;;5029005;28;20451;-59
2022/01/02 11:04:46;;;;;;;14.88;3.83;;;11.70;99.90;;;;;;5030955;28;20027;-56
2022/01/02 11:07:18;;;;;;;12.13;4.28;;;11.70;99.90;;;;;;5030785;28;20487;-58
2022/01/02 11:09:45;;;;;;;10.23;3.97;;;11.80;99.90;;;;;;5010851;28;20033;-59
2022/01/02 11:12:12;;;;;;;12.95;4.00;;;11.70;99.90;;;;;;5015264;28;20037;-58
2022/01/02 11:14:37;;;;;;;12.57;3.70;;;11.70;99.90;;;;;;5029257;28;20025;-58
2022/01/02 11:17:03;;;;;;;11.50;4.10;;;11.70;99.90;;;;;;5018147;28;20387;-58
2022/01/02 11:19:30;;;;;;;13.32;4.50;;;11.70;99.90;;;;;;5029225;28;20027;-60
2022/01/02 11:21:57;;;;;;;9.35;3.63;;;11.70;99.90;;;;;;5026568;28;20127;-58
2022/01/02 11:24:28;;;;;;;9.82;4.43;;;11.60;99.90;;;;;;5028743;28;20021;-58
2022/01/02 11:27:11;;;;;;;14.88;4.40;;;11.60;99.90;;;;;;5028797;28;20018;-57
2022/01/02 11:29:37;;;;;;;11.82;4.45;;;11.60;99.90;;;;;;5023251;28;20082;-59
2022/01/02 11:32:25;;;;;;;13.55;4.72;;;11.60;99.90;;;;;;5026360;28;20096;-60
2022/01/02 11:34:52;;;;;;;11.73;4.70;;;11.60;99.90;;;;;;5024777;28;20498;-58
2022/01/02 11:37:19;;;;;;;11.88;4.10;;;11.60;99.90;;;;;;5029672;28;20103;-59
2022/01/02 11:39:56;;;;;;;11.48;4.30;;;11.60;99.90;;;;;;5029629;28;20041;-59
2022/01/02 11:42:42;;;;;;;14.20;4.25;;;11.50;99.90;;;;;;5028960;28;20013;-58
2022/01/02 11:45:09;;;;;;;14.55;4.50;;;11.50;99.90;;;;;;5029789;28;20064;-60
2022/01/02 11:47:38;;;;;;;12.45;4.75;;;11.50;99.90;;;;;;5027617;28;20021;-58
2022/01/02 11:50:04;;;;;;;10.23;4.50;;;11.50;99.90;;;;;;5024420;28;20044;-58
2022/01/02 11:52:32;;;;;;;14.68;4.60;;;11.50;99.90;;;;;;5028074;28;20029;-59
2022/01/02 11:54:58;;;;;;;11.48;5.45;;;11.50;99.90;;;;;;5026516;28;20017;-60
2022/01/02 11:57:25;;;;;;;10.00;5.10;;;11.50;99.90;;;;;;5029113;28;20522;-60
2022/01/02 11:59:52;;;;;;;13.98;4.65;;;11.50;99.90;;;;;;5029197;28;20076;-60
2022/01/02 12:02:26;;;;;;;12.60;5.05;;;11.50;99.90;;;;;;5027786;28;20188;-60
2022/01/02 12:04:58;;;;;;;10.07;5.25;;;11.50;99.90;;;;;;5029217;28;20336;-60
2022/01/02 12:07:33;;;;;;;21.15;5.55;;;11.50;99.90;;;;;;5023055;28;20052;-61
2022/01/02 12:10:13;;;;;;;10.48;5.10;;;11.50;99.90;;;;;;5017222;28;20044;-61
2022/01/02 12:13:09;;;;;;;13.52;4.88;;;11.50;99.90;;;;;;5028492;28;20026;-61
2022/01/02 12:15:38;;;;;;;9.27;4.95;;;11.60;99.90;;;;;;5030903;28;20025;-60
2022/01/02 12:18:07;;;;;;;16.77;4.53;;;11.60;99.90;;;;;;5027219;28;20033;-59
2022/01/02 12:20:51;;;;;;;15.05;5.03;;;11.50;99.90;;;;;;5030016;28;20029;-60
2022/01/02 12:23:32;;;;;;;14.52;4.72;;;11.60;99.90;;;;;;5029428;28;20041;-59
2022/01/02 12:26:00;;;;;;;16.60;4.60;;;11.60;99.90;;;;;;5030142;28;20022;-59
2022/01/02 12:28:28;;;;;;;12.68;4.63;;;11.70;99.90;;;;;;5043881;28;20040;-56
2022/01/02 12:30:56;;;;;;;12.80;4.60;;;11.70;99.90;;;;;;5048478;28;20044;-53
2022/01/02 12:33:26;;;;;;;11.52;4.43;;;11.80;99.90;;;;;;5017749;28;20057;-55
2022/01/02 12:35:52;;;;;;;14.25;5.30;;;11.80;99.90;;;;;;5016144;28;20040;-57
2022/01/02 12:38:17;;;;;;;11.80;5.00;;;11.90;99.90;;;;;;5031613;28;20029;-57
2022/01/02 12:40:44;;;;;;;16.98;4.93;;;11.90;99.90;;;;;;5046263;28;20537;-60
2022/01/02 12:43:10;;;;;;;14.93;4.53;;;11.90;99.90;;;;;;4991679;28;20034;-56
2022/01/02 12:45:37;;;;;;;12.80;4.25;;;12.00;99.90;;;;;;5010105;28;20499;-54
2022/01/02 12:48:03;;;;;;;12.55;4.53;;;12.00;99.90;;;;;;5009490;28;20069;-56
2022/01/02 12:50:30;;;;;;;12.85;4.63;;;12.00;99.90;;;;;;5009864;28;20483;-53
2022/01/02 12:52:57;;;;;;;15.00;5.95;;;12.00;99.90;;;;;;5009054;28;20041;-56